Terminal Aerodrome Forecast
Issued by NWS Blacksburg, VA

Home | Current Version | Previous Version | Text Only | Print | Product List | Glossary On
Versions: 1 2 3 4 5 6 7 8 9 10 11 12 13 14 15 16 17 18 19 20 21 22 23 24 25 26 27 28 29 30 31 32 33 34 35 36 37 38
000
FTUS41 KRNK 121128
TAFDAN
TAF
KDAN 121128Z 1212/1312 00000KT 5SM BR FEW004
      TEMPO 1212/1213 1SM BR BKN005
     FM121400 17006KT P6SM SCT040
     FM122300 19003KT P6SM SKC
     FM130900 22003KT 4SM BR SCT250=

USA.gov is the U.S. government's official web portal to all federal, state and local government web resources and services.